sensor_id;sensor_type;location;lat;lon;timestamp;P1;durP1;ratioP1;P2;durP2;ratioP2
69736;SDS011;64476;55.004;73.342;2023-08-17T00:00:50;8.10;;;5.60;;
69736;SDS011;64476;55.004;73.342;2023-08-17T00:03:52;23.42;;;6.57;;
69736;SDS011;64476;55.004;73.342;2023-08-17T00:06:54;8.63;;;6.13;;
69736;SDS011;64476;55.004;73.342;2023-08-17T00:09:55;6.45;;;5.28;;
69736;SDS011;64476;55.004;73.342;2023-08-17T00:13:29;7.73;;;5.67;;
69736;SDS011;64476;55.004;73.342;2023-08-17T00:16:31;9.13;;;5.45;;
69736;SDS011;64476;55.004;73.342;2023-08-17T00:19:33;6.97;;;5.10;;
69736;SDS011;64476;55.004;73.342;2023-08-17T00:22:36;8.18;;;5.50;;
69736;SDS011;64476;55.004;73.342;2023-08-17T00:25:37;8.07;;;5.40;;
69736;SDS011;64476;55.004;73.342;2023-08-17T00:28:39;9.20;;;5.35;;
69736;SDS011;64476;55.004;73.342;2023-08-17T00:31:41;16.60;;;5.72;;
69736;SDS011;64476;55.004;73.342;2023-08-17T00:34:43;15.25;;;5.88;;
69736;SDS011;64476;55.004;73.342;2023-08-17T00:37:44;10.48;;;6.30;;
69736;SDS011;64476;55.004;73.342;2023-08-17T00:40:46;10.13;;;5.55;;
69736;SDS011;64476;55.004;73.342;2023-08-17T00:43:48;9.47;;;6.20;;
69736;SDS011;64476;55.004;73.342;2023-08-17T00:46:49;10.77;;;6.13;;
69736;SDS011;64476;55.004;73.342;2023-08-17T00:53:26;6.64;;;5.48;;
69736;SDS011;64476;55.004;73.342;2023-08-17T00:56:30;15.50;;;6.45;;
69736;SDS011;64476;55.004;73.342;2023-08-17T01:00:04;13.68;;;5.95;;
69736;SDS011;64476;55.004;73.342;2023-08-17T01:03:06;29.50;;;6.93;;
69736;SDS011;64476;55.004;73.342;2023-08-17T01:06:17;13.75;;;6.13;;
69736;SDS011;64476;55.004;73.342;2023-08-17T01:09:20;11.98;;;6.57;;
69736;SDS011;64476;55.004;73.342;2023-08-17T01:15:35;11.32;;;5.95;;
69736;SDS011;64476;55.004;73.342;2023-08-17T01:18:39;13.00;;;6.07;;
69736;SDS011;64476;55.004;73.342;2023-08-17T01:27:49;18.60;;;5.95;;
69736;SDS011;64476;55.004;73.342;2023-08-17T01:34:25;13.05;;;5.97;;
69736;SDS011;64476;55.004;73.342;2023-08-17T01:37:31;13.00;;;5.93;;
69736;SDS011;64476;55.004;73.342;2023-08-17T01:41:08;12.25;;;5.80;;
69736;SDS011;64476;55.004;73.342;2023-08-17T01:44:48;14.87;;;5.80;;
69736;SDS011;64476;55.004;73.342;2023-08-17T01:47:50;8.93;;;6.32;;
69736;SDS011;64476;55.004;73.342;2023-08-17T01:50:52;12.57;;;6.03;;
69736;SDS011;64476;55.004;73.342;2023-08-17T01:53:55;11.23;;;6.30;;
69736;SDS011;64476;55.004;73.342;2023-08-17T01:56:57;8.45;;;5.93;;
69736;SDS011;64476;55.004;73.342;2023-08-17T02:00:00;12.77;;;6.10;;
69736;SDS011;64476;55.004;73.342;2023-08-17T02:06:13;9.30;;;5.80;;
69736;SDS011;64476;55.004;73.342;2023-08-17T02:09:14;7.80;;;5.70;;
69736;SDS011;64476;55.004;73.342;2023-08-17T02:12:16;14.05;;;5.80;;
69736;SDS011;64476;55.004;73.342;2023-08-17T02:15:18;19.33;;;6.55;;
69736;SDS011;64476;55.004;73.342;2023-08-17T02:18:24;18.45;;;6.30;;
69736;SDS011;64476;55.004;73.342;2023-08-17T02:21:25;9.55;;;5.82;;
69736;SDS011;64476;55.004;73.342;2023-08-17T02:24:27;10.63;;;5.70;;
69736;SDS011;64476;55.004;73.342;2023-08-17T02:27:28;13.97;;;6.60;;
69736;SDS011;64476;55.004;73.342;2023-08-17T02:30:32;12.85;;;6.10;;
69736;SDS011;64476;55.004;73.342;2023-08-17T02:33:34;14.60;;;5.43;;
69736;SDS011;64476;55.004;73.342;2023-08-17T02:37:13;9.43;;;5.30;;
69736;SDS011;64476;55.004;73.342;2023-08-17T02:40:14;10.60;;;5.90;;
69736;SDS011;64476;55.004;73.342;2023-08-17T02:43:24;11.71;;;6.26;;
69736;SDS011;64476;55.004;73.342;2023-08-17T02:47:00;7.15;;;6.05;;
69736;SDS011;64476;55.004;73.342;2023-08-17T02:50:34;5.55;;;4.95;;
69736;SDS011;64476;55.004;73.342;2023-08-17T02:53:36;13.52;;;4.97;;
69736;SDS011;64476;55.004;73.342;2023-08-17T02:56:38;9.48;;;6.07;;
69736;SDS011;64476;55.004;73.342;2023-08-17T02:59:40;6.60;;;5.85;;
69736;SDS011;64476;55.004;73.342;2023-08-17T03:02:41;11.55;;;6.55;;
69736;SDS011;64476;55.004;73.342;2023-08-17T03:09:17;14.05;;;6.72;;
69736;SDS011;64476;55.004;73.342;2023-08-17T03:12:30;14.77;;;6.43;;
69736;SDS011;64476;55.004;73.342;2023-08-17T03:15:32;18.00;;;6.47;;
69736;SDS011;64476;55.004;73.342;2023-08-17T03:18:34;14.97;;;8.93;;
69736;SDS011;64476;55.004;73.342;2023-08-17T03:21:36;23.45;;;7.57;;
69736;SDS011;64476;55.004;73.342;2023-08-17T03:24:38;20.88;;;7.72;;
69736;SDS011;64476;55.004;73.342;2023-08-17T03:27:40;26.45;;;8.55;;
69736;SDS011;64476;55.004;73.342;2023-08-17T03:30:42;24.48;;;6.53;;
69736;SDS011;64476;55.004;73.342;2023-08-17T03:33:44;13.68;;;5.70;;
69736;SDS011;64476;55.004;73.342;2023-08-17T03:36:50;12.20;;;5.47;;
69736;SDS011;64476;55.004;73.342;2023-08-17T03:39:51;31.15;;;6.60;;
69736;SDS011;64476;55.004;73.342;2023-08-17T03:42:54;11.98;;;6.28;;
69736;SDS011;64476;55.004;73.342;2023-08-17T03:45:56;13.73;;;6.10;;
69736;SDS011;64476;55.004;73.342;2023-08-17T03:48:58;16.05;;;5.68;;
69736;SDS011;64476;55.004;73.342;2023-08-17T03:52:00;17.15;;;5.70;;
69736;SDS011;64476;55.004;73.342;2023-08-17T03:55:02;11.00;;;5.65;;
69736;SDS011;64476;55.004;73.342;2023-08-17T03:58:06;13.88;;;5.32;;
69736;SDS011;64476;55.004;73.342;2023-08-17T04:01:08;16.05;;;6.10;;
69736;SDS011;64476;55.004;73.342;2023-08-17T04:04:10;15.93;;;5.22;;
69736;SDS011;64476;55.004;73.342;2023-08-17T04:07:11;14.85;;;5.75;;
69736;SDS011;64476;55.004;73.342;2023-08-17T04:10:14;13.97;;;5.93;;
69736;SDS011;64476;55.004;73.342;2023-08-17T04:13:24;21.13;;;8.29;;
69736;SDS011;64476;55.004;73.342;2023-08-17T04:16:26;19.65;;;6.55;;
69736;SDS011;64476;55.004;73.342;2023-08-17T04:19:28;22.63;;;6.90;;
69736;SDS011;64476;55.004;73.342;2023-08-17T04:22:30;23.08;;;6.68;;
69736;SDS011;64476;55.004;73.342;2023-08-17T04:25:32;17.15;;;7.13;;
69736;SDS011;64476;55.004;73.342;2023-08-17T04:28:34;19.90;;;7.90;;
69736;SDS011;64476;55.004;73.342;2023-08-17T04:31:35;31.20;;;9.55;;
69736;SDS011;64476;55.004;73.342;2023-08-17T04:34:38;24.60;;;7.90;;
69736;SDS011;64476;55.004;73.342;2023-08-17T04:37:40;17.58;;;6.32;;
69736;SDS011;64476;55.004;73.342;2023-08-17T04:40:43;22.35;;;7.55;;
69736;SDS011;64476;55.004;73.342;2023-08-17T04:43:45;24.90;;;7.60;;
69736;SDS011;64476;55.004;73.342;2023-08-17T04:46:48;47.27;;;15.57;;
69736;SDS011;64476;55.004;73.342;2023-08-17T04:49:49;23.88;;;8.10;;
69736;SDS011;64476;55.004;73.342;2023-08-17T04:52:51;16.88;;;7.45;;
69736;SDS011;64476;55.004;73.342;2023-08-17T04:55:58;19.47;;;7.17;;
69736;SDS011;64476;55.004;73.342;2023-08-17T04:59:01;25.83;;;7.23;;
69736;SDS011;64476;55.004;73.342;2023-08-17T05:02:03;17.35;;;6.45;;
69736;SDS011;64476;55.004;73.342;2023-08-17T05:05:05;22.80;;;7.78;;
69736;SDS011;64476;55.004;73.342;2023-08-17T05:08:08;26.33;;;10.15;;
69736;SDS011;64476;55.004;73.342;2023-08-17T05:11:11;26.60;;;9.03;;
69736;SDS011;64476;55.004;73.342;2023-08-17T05:14:13;49.92;;;12.05;;
69736;SDS011;64476;55.004;73.342;2023-08-17T05:17:15;27.77;;;9.00;;
69736;SDS011;64476;55.004;73.342;2023-08-17T05:23:50;20.60;;;7.13;;
69736;SDS011;64476;55.004;73.342;2023-08-17T05:26:53;11.45;;;6.25;;
69736;SDS011;64476;55.004;73.342;2023-08-17T05:29:55;23.13;;;6.15;;
69736;SDS011;64476;55.004;73.342;2023-08-17T05:32:57;20.63;;;6.22;;
69736;SDS011;64476;55.004;73.342;2023-08-17T05:35:59;30.92;;;6.85;;
69736;SDS011;64476;55.004;73.342;2023-08-17T05:39:01;11.43;;;6.20;;
69736;SDS011;64476;55.004;73.342;2023-08-17T05:42:14;22.48;;;6.13;;
69736;SDS011;64476;55.004;73.342;2023-08-17T05:45:17;15.70;;;6.87;;
69736;SDS011;64476;55.004;73.342;2023-08-17T05:48:24;30.27;;;6.80;;
69736;SDS011;64476;55.004;73.342;2023-08-17T05:51:26;42.08;;;6.65;;
69736;SDS011;64476;55.004;73.342;2023-08-17T05:54:27;7.82;;;5.95;;
69736;SDS011;64476;55.004;73.342;2023-08-17T05:57:29;26.45;;;6.97;;
69736;SDS011;64476;55.004;73.342;2023-08-17T06:00:31;12.32;;;7.53;;
69736;SDS011;64476;55.004;73.342;2023-08-17T06:03:34;10.20;;;6.30;;
69736;SDS011;64476;55.004;73.342;2023-08-17T06:06:36;13.30;;;6.70;;
69736;SDS011;64476;55.004;73.342;2023-08-17T06:09:38;17.20;;;6.10;;
69736;SDS011;64476;55.004;73.342;2023-08-17T06:12:40;23.83;;;12.90;;
69736;SDS011;64476;55.004;73.342;2023-08-17T06:15:43;23.95;;;7.80;;
69736;SDS011;64476;55.004;73.342;2023-08-17T06:18:44;16.05;;;7.65;;
69736;SDS011;64476;55.004;73.342;2023-08-17T06:21:47;17.98;;;6.00;;
69736;SDS011;64476;55.004;73.342;2023-08-17T06:24:48;19.83;;;6.38;;
69736;SDS011;64476;55.004;73.342;2023-08-17T06:27:50;26.33;;;6.68;;
69736;SDS011;64476;55.004;73.342;2023-08-17T06:30:52;19.05;;;7.63;;
69736;SDS011;64476;55.004;73.342;2023-08-17T06:33:54;11.57;;;5.93;;
69736;SDS011;64476;55.004;73.342;2023-08-17T06:36:57;52.05;;;16.13;;
69736;SDS011;64476;55.004;73.342;2023-08-17T06:40:00;20.25;;;6.75;;
69736;SDS011;64476;55.004;73.342;2023-08-17T06:43:03;11.38;;;5.80;;
69736;SDS011;64476;55.004;73.342;2023-08-17T06:46:05;22.70;;;7.27;;
69736;SDS011;64476;55.004;73.342;2023-08-17T06:49:07;13.73;;;6.30;;
69736;SDS011;64476;55.004;73.342;2023-08-17T06:52:09;10.90;;;5.55;;
69736;SDS011;64476;55.004;73.342;2023-08-17T06:55:15;15.50;;;7.13;;
69736;SDS011;64476;55.004;73.342;2023-08-17T06:58:24;8.40;;;7.10;;
69736;SDS011;64476;55.004;73.342;2023-08-17T07:01:25;15.30;;;6.43;;
69736;SDS011;64476;55.004;73.342;2023-08-17T07:04:31;15.88;;;6.78;;
69736;SDS011;64476;55.004;73.342;2023-08-17T07:07:33;11.93;;;6.15;;
69736;SDS011;64476;55.004;73.342;2023-08-17T07:10:35;9.53;;;6.53;;
69736;SDS011;64476;55.004;73.342;2023-08-17T07:13:37;9.30;;;6.82;;
69736;SDS011;64476;55.004;73.342;2023-08-17T07:16:39;13.77;;;7.90;;
69736;SDS011;64476;55.004;73.342;2023-08-17T07:19:44;16.70;;;7.15;;
69736;SDS011;64476;55.004;73.342;2023-08-17T07:22:45;11.50;;;7.97;;
69736;SDS011;64476;55.004;73.342;2023-08-17T07:25:48;12.07;;;7.60;;
69736;SDS011;64476;55.004;73.342;2023-08-17T07:31:51;14.77;;;7.18;;
69736;SDS011;64476;55.004;73.342;2023-08-17T07:34:53;7.95;;;6.65;;
69736;SDS011;64476;55.004;73.342;2023-08-17T07:37:54;15.25;;;7.50;;
69736;SDS011;64476;55.004;73.342;2023-08-17T07:40:56;31.25;;;8.02;;
69736;SDS011;64476;55.004;73.342;2023-08-17T07:47:00;12.60;;;7.28;;
69736;SDS011;64476;55.004;73.342;2023-08-17T07:50:03;20.23;;;10.85;;
69736;SDS011;64476;55.004;73.342;2023-08-17T07:53:06;13.48;;;8.73;;
69736;SDS011;64476;55.004;73.342;2023-08-17T07:56:07;9.05;;;7.50;;
69736;SDS011;64476;55.004;73.342;2023-08-17T07:59:09;8.68;;;6.40;;
69736;SDS011;64476;55.004;73.342;2023-08-17T08:02:11;24.25;;;7.93;;
69736;SDS011;64476;55.004;73.342;2023-08-17T08:05:13;15.25;;;7.22;;
69736;SDS011;64476;55.004;73.342;2023-08-17T08:08:24;27.64;;;8.81;;
69736;SDS011;64476;55.004;73.342;2023-08-17T08:11:25;12.80;;;6.95;;
69736;SDS011;64476;55.004;73.342;2023-08-17T08:14:28;10.82;;;6.35;;
69736;SDS011;64476;55.004;73.342;2023-08-17T08:17:40;9.77;;;6.60;;
69736;SDS011;64476;55.004;73.342;2023-08-17T08:20:42;10.35;;;6.28;;
69736;SDS011;64476;55.004;73.342;2023-08-17T08:23:43;13.70;;;7.97;;
69736;SDS011;64476;55.004;73.342;2023-08-17T08:26:45;10.15;;;6.65;;
69736;SDS011;64476;55.004;73.342;2023-08-17T08:29:47;14.02;;;7.25;;
69736;SDS011;64476;55.004;73.342;2023-08-17T08:32:49;8.40;;;7.50;;
69736;SDS011;64476;55.004;73.342;2023-08-17T08:35:54;27.87;;;7.10;;
69736;SDS011;64476;55.004;73.342;2023-08-17T08:38:56;13.40;;;7.33;;
69736;SDS011;64476;55.004;73.342;2023-08-17T08:41:58;12.93;;;6.22;;
69736;SDS011;64476;55.004;73.342;2023-08-17T08:45:09;10.07;;;5.45;;
69736;SDS011;64476;55.004;73.342;2023-08-17T08:48:11;11.18;;;6.03;;
69736;SDS011;64476;55.004;73.342;2023-08-17T08:51:15;8.43;;;5.53;;
69736;SDS011;64476;55.004;73.342;2023-08-17T08:54:21;11.17;;;5.73;;
69736;SDS011;64476;55.004;73.342;2023-08-17T08:57:24;5.25;;;4.70;;
69736;SDS011;64476;55.004;73.342;2023-08-17T09:00:32;14.75;;;5.78;;
69736;SDS011;64476;55.004;73.342;2023-08-17T09:03:46;11.80;;;5.90;;
69736;SDS011;64476;55.004;73.342;2023-08-17T09:06:50;22.50;;;5.13;;
69736;SDS011;64476;55.004;73.342;2023-08-17T09:10:25;10.07;;;5.05;;
69736;SDS011;64476;55.004;73.342;2023-08-17T09:13:27;7.25;;;4.65;;
69736;SDS011;64476;55.004;73.342;2023-08-17T09:16:29;7.72;;;4.30;;
69736;SDS011;64476;55.004;73.342;2023-08-17T09:19:32;7.78;;;4.05;;
69736;SDS011;64476;55.004;73.342;2023-08-17T09:22:37;4.78;;;4.28;;
69736;SDS011;64476;55.004;73.342;2023-08-17T09:25:49;10.13;;;4.75;;
69736;SDS011;64476;55.004;73.342;2023-08-17T09:28:59;15.60;;;4.87;;
69736;SDS011;64476;55.004;73.342;2023-08-17T09:32:17;7.90;;;4.05;;
69736;SDS011;64476;55.004;73.342;2023-08-17T09:35:19;4.40;;;3.60;;
69736;SDS011;64476;55.004;73.342;2023-08-17T09:38:25;6.78;;;4.38;;
69736;SDS011;64476;55.004;73.342;2023-08-17T09:41:47;9.93;;;3.92;;
69736;SDS011;64476;55.004;73.342;2023-08-17T09:44:49;11.50;;;5.37;;
69736;SDS011;64476;55.004;73.342;2023-08-17T09:47:51;7.82;;;4.40;;
69736;SDS011;64476;55.004;73.342;2023-08-17T09:50:53;7.47;;;3.80;;
69736;SDS011;64476;55.004;73.342;2023-08-17T09:53:58;14.63;;;3.60;;
69736;SDS011;64476;55.004;73.342;2023-08-17T09:56:59;10.15;;;3.80;;
69736;SDS011;64476;55.004;73.342;2023-08-17T10:00:03;8.70;;;3.75;;
69736;SDS011;64476;55.004;73.342;2023-08-17T10:03:13;9.32;;;3.83;;
69736;SDS011;64476;55.004;73.342;2023-08-17T10:06:20;7.60;;;3.40;;
69736;SDS011;64476;55.004;73.342;2023-08-17T10:10:04;7.00;;;3.73;;
69736;SDS011;64476;55.004;73.342;2023-08-17T10:13:11;7.10;;;2.92;;
69736;SDS011;64476;55.004;73.342;2023-08-17T10:16:23;5.93;;;3.83;;
69736;SDS011;64476;55.004;73.342;2023-08-17T10:19:33;8.30;;;4.40;;
69736;SDS011;64476;55.004;73.342;2023-08-17T10:23:27;8.25;;;3.17;;
69736;SDS011;64476;55.004;73.342;2023-08-17T10:30:10;4.00;;;2.50;;
69736;SDS011;64476;55.004;73.342;2023-08-17T10:33:12;5.80;;;2.20;;
69736;SDS011;64476;55.004;73.342;2023-08-17T10:36:15;17.08;;;4.82;;
69736;SDS011;64476;55.004;73.342;2023-08-17T10:39:52;5.83;;;3.80;;
69736;SDS011;64476;55.004;73.342;2023-08-17T10:42:54;21.13;;;3.13;;
69736;SDS011;64476;55.004;73.342;2023-08-17T10:45:57;13.85;;;6.32;;
69736;SDS011;64476;55.004;73.342;2023-08-17T10:49:52;7.03;;;1.90;;
69736;SDS011;64476;55.004;73.342;2023-08-17T10:56:41;11.30;;;2.17;;
69736;SDS011;64476;55.004;73.342;2023-08-17T10:59:43;32.10;;;3.43;;
69736;SDS011;64476;55.004;73.342;2023-08-17T11:02:52;8.18;;;2.78;;
69736;SDS011;64476;55.004;73.342;2023-08-17T11:06:13;5.40;;;2.10;;
69736;SDS011;64476;55.004;73.342;2023-08-17T11:09:16;10.43;;;2.65;;
69736;SDS011;64476;55.004;73.342;2023-08-17T11:12:25;4.78;;;2.35;;
69736;SDS011;64476;55.004;73.342;2023-08-17T11:15:37;6.88;;;1.90;;
69736;SDS011;64476;55.004;73.342;2023-08-17T11:19:12;6.05;;;1.80;;
69736;SDS011;64476;55.004;73.342;2023-08-17T11:22:14;13.20;;;2.10;;
69736;SDS011;64476;55.004;73.342;2023-08-17T11:25:53;7.22;;;2.20;;
69736;SDS011;64476;55.004;73.342;2023-08-17T11:28:55;10.47;;;2.30;;
69736;SDS011;64476;55.004;73.342;2023-08-17T11:31:57;13.67;;;3.30;;
69736;SDS011;64476;55.004;73.342;2023-08-17T11:41:39;9.52;;;2.28;;
69736;SDS011;64476;55.004;73.342;2023-08-17T11:44:42;5.63;;;2.58;;
69736;SDS011;64476;55.004;73.342;2023-08-17T11:48:24;12.98;;;3.03;;
69736;SDS011;64476;55.004;73.342;2023-08-17T11:51:30;10.02;;;2.40;;
69736;SDS011;64476;55.004;73.342;2023-08-17T11:54:32;20.63;;;3.45;;
69736;SDS011;64476;55.004;73.342;2023-08-17T11:57:35;6.80;;;2.22;;
69736;SDS011;64476;55.004;73.342;2023-08-17T12:00:42;3.67;;;1.93;;
69736;SDS011;64476;55.004;73.342;2023-08-17T12:03:48;9.80;;;2.80;;
69736;SDS011;64476;55.004;73.342;2023-08-17T12:06:50;12.25;;;2.95;;
69736;SDS011;64476;55.004;73.342;2023-08-17T12:09:52;7.70;;;2.17;;
69736;SDS011;64476;55.004;73.342;2023-08-17T12:12:57;16.70;;;2.97;;
69736;SDS011;64476;55.004;73.342;2023-08-17T12:16:03;6.07;;;1.93;;
69736;SDS011;64476;55.004;73.342;2023-08-17T12:19:36;9.47;;;2.13;;
69736;SDS011;64476;55.004;73.342;2023-08-17T12:22:39;5.20;;;2.40;;
69736;SDS011;64476;55.004;73.342;2023-08-17T12:25:41;5.20;;;2.28;;
69736;SDS011;64476;55.004;73.342;2023-08-17T12:28:43;11.05;;;2.53;;
69736;SDS011;64476;55.004;73.342;2023-08-17T12:31:45;8.20;;;2.40;;
69736;SDS011;64476;55.004;73.342;2023-08-17T12:34:47;11.70;;;2.28;;
69736;SDS011;64476;55.004;73.342;2023-08-17T12:37:49;12.02;;;2.58;;
69736;SDS011;64476;55.004;73.342;2023-08-17T12:40:51;12.07;;;2.22;;
69736;SDS011;64476;55.004;73.342;2023-08-17T12:43:53;3.80;;;2.03;;
69736;SDS011;64476;55.004;73.342;2023-08-17T12:46:57;8.70;;;2.10;;
69736;SDS011;64476;55.004;73.342;2023-08-17T12:50:34;3.08;;;2.03;;
69736;SDS011;64476;55.004;73.342;2023-08-17T12:53:37;16.20;;;1.92;;
69736;SDS011;64476;55.004;73.342;2023-08-17T12:59:42;15.75;;;2.22;;
69736;SDS011;64476;55.004;73.342;2023-08-17T13:02:44;6.47;;;2.25;;
69736;SDS011;64476;55.004;73.342;2023-08-17T13:05:48;17.90;;;2.70;;
69736;SDS011;64476;55.004;73.342;2023-08-17T13:08:50;19.57;;;3.20;;
69736;SDS011;64476;55.004;73.342;2023-08-17T13:11:51;12.75;;;3.03;;
69736;SDS011;64476;55.004;73.342;2023-08-17T13:14:57;25.15;;;4.03;;
69736;SDS011;64476;55.004;73.342;2023-08-17T13:17:58;33.45;;;4.85;;
69736;SDS011;64476;55.004;73.342;2023-08-17T13:21:01;6.20;;;2.78;;
69736;SDS011;64476;55.004;73.342;2023-08-17T13:24:02;8.18;;;3.33;;
69736;SDS011;64476;55.004;73.342;2023-08-17T13:27:05;9.25;;;2.72;;
69736;SDS011;64476;55.004;73.342;2023-08-17T13:30:07;12.23;;;2.63;;
69736;SDS011;64476;55.004;73.342;2023-08-17T13:33:11;18.55;;;3.42;;
69736;SDS011;64476;55.004;73.342;2023-08-17T13:36:45;4.28;;;2.30;;
69736;SDS011;64476;55.004;73.342;2023-08-17T13:40:18;7.13;;;2.47;;
69736;SDS011;64476;55.004;73.342;2023-08-17T13:43:24;6.88;;;2.15;;
69736;SDS011;64476;55.004;73.342;2023-08-17T13:46:25;11.85;;;2.80;;
69736;SDS011;64476;55.004;73.342;2023-08-17T13:49:41;7.15;;;2.40;;
69736;SDS011;64476;55.004;73.342;2023-08-17T13:52:43;8.85;;;2.78;;
69736;SDS011;64476;55.004;73.342;2023-08-17T13:55:45;17.15;;;2.42;;
69736;SDS011;64476;55.004;73.342;2023-08-17T13:58:47;2.88;;;2.22;;
69736;SDS011;64476;55.004;73.342;2023-08-17T14:01:48;16.85;;;2.08;;
69736;SDS011;64476;55.004;73.342;2023-08-17T14:05:22;12.23;;;2.63;;
69736;SDS011;64476;55.004;73.342;2023-08-17T14:08:26;10.73;;;2.50;;
69736;SDS011;64476;55.004;73.342;2023-08-17T14:11:30;12.55;;;2.75;;
69736;SDS011;64476;55.004;73.342;2023-08-17T14:14:32;11.27;;;2.65;;
69736;SDS011;64476;55.004;73.342;2023-08-17T14:17:35;10.75;;;2.85;;
69736;SDS011;64476;55.004;73.342;2023-08-17T14:20:37;21.75;;;3.10;;
69736;SDS011;64476;55.004;73.342;2023-08-17T14:23:39;14.60;;;3.27;;
69736;SDS011;64476;55.004;73.342;2023-08-17T14:26:42;18.60;;;2.95;;
69736;SDS011;64476;55.004;73.342;2023-08-17T14:29:45;17.03;;;4.17;;
69736;SDS011;64476;55.004;73.342;2023-08-17T14:32:46;12.52;;;3.70;;
69736;SDS011;64476;55.004;73.342;2023-08-17T14:35:48;10.43;;;3.78;;
69736;SDS011;64476;55.004;73.342;2023-08-17T14:38:50;15.80;;;4.22;;
69736;SDS011;64476;55.004;73.342;2023-08-17T14:41:53;18.45;;;4.55;;
69736;SDS011;64476;55.004;73.342;2023-08-17T14:44:54;23.73;;;5.70;;
69736;SDS011;64476;55.004;73.342;2023-08-17T14:47:56;14.65;;;5.20;;
69736;SDS011;64476;55.004;73.342;2023-08-17T14:50:59;22.60;;;6.22;;
69736;SDS011;64476;55.004;73.342;2023-08-17T14:54:01;10.55;;;5.43;;
69736;SDS011;64476;55.004;73.342;2023-08-17T14:57:03;15.95;;;5.55;;
69736;SDS011;64476;55.004;73.342;2023-08-17T15:00:36;17.48;;;4.95;;
69736;SDS011;64476;55.004;73.342;2023-08-17T15:03:38;11.02;;;4.68;;
69736;SDS011;64476;55.004;73.342;2023-08-17T15:06:41;16.63;;;4.80;;
69736;SDS011;64476;55.004;73.342;2023-08-17T15:09:43;15.77;;;5.23;;
69736;SDS011;64476;55.004;73.342;2023-08-17T15:15:51;18.07;;;5.63;;
69736;SDS011;64476;55.004;73.342;2023-08-17T15:18:52;27.80;;;8.95;;
69736;SDS011;64476;55.004;73.342;2023-08-17T15:21:55;31.83;;;10.32;;
69736;SDS011;64476;55.004;73.342;2023-08-17T15:24:59;18.60;;;10.82;;
69736;SDS011;64476;55.004;73.342;2023-08-17T15:28:00;18.95;;;10.30;;
69736;SDS011;64476;55.004;73.342;2023-08-17T15:31:02;21.73;;;10.07;;
69736;SDS011;64476;55.004;73.342;2023-08-17T15:34:10;25.17;;;10.60;;
69736;SDS011;64476;55.004;73.342;2023-08-17T15:37:11;40.40;;;10.63;;
69736;SDS011;64476;55.004;73.342;2023-08-17T15:40:13;19.92;;;8.50;;
69736;SDS011;64476;55.004;73.342;2023-08-17T15:43:23;27.60;;;9.10;;
69736;SDS011;64476;55.004;73.342;2023-08-17T15:46:25;20.50;;;8.05;;
69736;SDS011;64476;55.004;73.342;2023-08-17T15:53:01;13.67;;;6.77;;
69736;SDS011;64476;55.004;73.342;2023-08-17T15:56:04;13.17;;;6.47;;
69736;SDS011;64476;55.004;73.342;2023-08-17T15:59:06;17.60;;;6.10;;
69736;SDS011;64476;55.004;73.342;2023-08-17T16:02:07;22.00;;;4.28;;
69736;SDS011;64476;55.004;73.342;2023-08-17T16:05:10;24.80;;;4.70;;
69736;SDS011;64476;55.004;73.342;2023-08-17T16:08:11;17.92;;;4.38;;
69736;SDS011;64476;55.004;73.342;2023-08-17T16:11:13;19.98;;;4.38;;
69736;SDS011;64476;55.004;73.342;2023-08-17T16:14:15;20.67;;;4.53;;
69736;SDS011;64476;55.004;73.342;2023-08-17T16:17:17;7.50;;;4.40;;
69736;SDS011;64476;55.004;73.342;2023-08-17T16:20:18;15.90;;;3.97;;
69736;SDS011;64476;55.004;73.342;2023-08-17T16:26:57;7.40;;;3.40;;
69736;SDS011;64476;55.004;73.342;2023-08-17T16:29:58;24.98;;;3.33;;
69736;SDS011;64476;55.004;73.342;2023-08-17T16:33:00;10.23;;;3.25;;
69736;SDS011;64476;55.004;73.342;2023-08-17T16:36:02;15.73;;;3.90;;
69736;SDS011;64476;55.004;73.342;2023-08-17T16:39:04;16.03;;;3.27;;
69736;SDS011;64476;55.004;73.342;2023-08-17T16:42:06;10.73;;;3.17;;
69736;SDS011;64476;55.004;73.342;2023-08-17T16:45:08;7.38;;;3.08;;
69736;SDS011;64476;55.004;73.342;2023-08-17T16:51:14;8.57;;;4.43;;
69736;SDS011;64476;55.004;73.342;2023-08-17T16:54:15;12.82;;;5.13;;
69736;SDS011;64476;55.004;73.342;2023-08-17T16:57:20;13.73;;;4.05;;
69736;SDS011;64476;55.004;73.342;2023-08-17T17:00:54;6.10;;;3.83;;
69736;SDS011;64476;55.004;73.342;2023-08-17T17:03:56;11.18;;;3.40;;
69736;SDS011;64476;55.004;73.342;2023-08-17T17:07:02;5.72;;;2.95;;
69736;SDS011;64476;55.004;73.342;2023-08-17T17:10:04;10.52;;;3.17;;
69736;SDS011;64476;55.004;73.342;2023-08-17T17:13:07;10.70;;;2.80;;
69736;SDS011;64476;55.004;73.342;2023-08-17T17:16:09;12.27;;;3.10;;
69736;SDS011;64476;55.004;73.342;2023-08-17T17:19:11;6.85;;;3.00;;
69736;SDS011;64476;55.004;73.342;2023-08-17T17:22:12;19.15;;;3.00;;
69736;SDS011;64476;55.004;73.342;2023-08-17T17:25:15;15.15;;;3.75;;
69736;SDS011;64476;55.004;73.342;2023-08-17T17:28:23;5.49;;;2.74;;
69736;SDS011;64476;55.004;73.342;2023-08-17T17:31:25;8.32;;;3.10;;
69736;SDS011;64476;55.004;73.342;2023-08-17T17:34:27;8.23;;;3.25;;
69736;SDS011;64476;55.004;73.342;2023-08-17T17:37:29;13.10;;;3.30;;
69736;SDS011;64476;55.004;73.342;2023-08-17T17:41:02;5.37;;;2.50;;
69736;SDS011;64476;55.004;73.342;2023-08-17T17:44:04;9.70;;;2.92;;
69736;SDS011;64476;55.004;73.342;2023-08-17T17:47:07;10.13;;;2.47;;
69736;SDS011;64476;55.004;73.342;2023-08-17T17:50:09;3.15;;;2.28;;
69736;SDS011;64476;55.004;73.342;2023-08-17T17:53:12;5.07;;;2.38;;
69736;SDS011;64476;55.004;73.342;2023-08-17T17:56:14;9.30;;;3.08;;
69736;SDS011;64476;55.004;73.342;2023-08-17T17:59:18;17.97;;;3.20;;
69736;SDS011;64476;55.004;73.342;2023-08-17T18:02:23;6.38;;;2.97;;
69736;SDS011;64476;55.004;73.342;2023-08-17T18:05:26;11.48;;;3.25;;
69736;SDS011;64476;55.004;73.342;2023-08-17T18:08:27;10.56;;;3.03;;
69736;SDS011;64476;55.004;73.342;2023-08-17T18:11:29;8.57;;;2.97;;
69736;SDS011;64476;55.004;73.342;2023-08-17T18:14:31;13.13;;;3.15;;
69736;SDS011;64476;55.004;73.342;2023-08-17T18:17:33;8.13;;;3.75;;
69736;SDS011;64476;55.004;73.342;2023-08-17T18:20:35;11.95;;;3.10;;
69736;SDS011;64476;55.004;73.342;2023-08-17T18:23:37;11.02;;;3.42;;
69736;SDS011;64476;55.004;73.342;2023-08-17T18:26:38;8.50;;;3.60;;
69736;SDS011;64476;55.004;73.342;2023-08-17T18:29:40;8.15;;;2.90;;
69736;SDS011;64476;55.004;73.342;2023-08-17T18:32:42;6.85;;;3.03;;
69736;SDS011;64476;55.004;73.342;2023-08-17T18:35:43;10.13;;;3.75;;
69736;SDS011;64476;55.004;73.342;2023-08-17T18:38:45;3.10;;;2.80;;
69736;SDS011;64476;55.004;73.342;2023-08-17T18:41:47;7.75;;;3.67;;
69736;SDS011;64476;55.004;73.342;2023-08-17T18:44:49;6.47;;;3.17;;
69736;SDS011;64476;55.004;73.342;2023-08-17T18:47:51;7.00;;;3.00;;
69736;SDS011;64476;55.004;73.342;2023-08-17T18:50:59;8.50;;;3.13;;
69736;SDS011;64476;55.004;73.342;2023-08-17T18:54:02;7.93;;;3.20;;
69736;SDS011;64476;55.004;73.342;2023-08-17T18:57:05;9.10;;;2.97;;
69736;SDS011;64476;55.004;73.342;2023-08-17T19:00:08;6.88;;;3.25;;
69736;SDS011;64476;55.004;73.342;2023-08-17T19:03:13;19.05;;;3.58;;
69736;SDS011;64476;55.004;73.342;2023-08-17T19:06:15;9.82;;;3.70;;
69736;SDS011;64476;55.004;73.342;2023-08-17T19:09:22;9.27;;;4.07;;
69736;SDS011;64476;55.004;73.342;2023-08-17T19:12:24;5.40;;;3.28;;